Time;durP1;ratioP1;P1;durP2;ratioP2;P2;SDS_P1;SDS_P2;PMS_P1;PMS_P2;Temp;Humidity;BMP_temperature;BMP_pressure;BME280_temperature;BME280_humidity;BME280_pressure;Samples;Min_cycle;Max_cycle;Signal;HPM_P1;HPM_P2
2023/02/10 00:00:01;;;;;;;;;;;;;;;2.47;100.00;103475.50;10455737;28;20343;-68
2023/02/10 00:05:04;;;;;;;;;;;;;;;2.38;100.00;103483.06;10439767;28;19921;-69
2023/02/10 00:10:06;;;;;;;;;;;;;;;2.25;100.00;103474.19;10456101;28;19931;-69
2023/02/10 00:15:08;;;;;;;;;;;;;;;2.35;100.00;103483.00;10417462;28;20023;-66
2023/02/10 00:20:10;;;;;;;;;;;;;;;2.31;100.00;103496.72;10454584;28;19929;-68
2023/02/10 00:25:13;;;;;;;;;;;;;;;2.40;100.00;103483.97;10456995;28;19921;-68
2023/02/10 00:30:15;;;;;;;;;;;;;;;2.41;100.00;103484.00;10455167;28;19920;-68
2023/02/10 00:35:17;;;;;;;;;;;;;;;2.32;100.00;103494.19;10434980;28;20330;-68
2023/02/10 00:40:19;;;;;;;;;;;;;;;2.17;100.00;103492.16;10397956;28;19921;-68
2023/02/10 00:45:22;;;;;;;;;;;;;;;2.29;100.00;103496.69;10416734;28;19921;-68
2023/02/10 00:50:24;;;;;;;;;;;;;;;2.13;100.00;103503.25;10448321;28;20021;-68
2023/02/10 00:55:26;;;;;;;;;;;;;;;2.13;100.00;103492.91;10438040;28;20287;-68
2023/02/10 01:00:28;;;;;;;;;;;;;;;2.18;100.00;103508.53;10463427;28;19920;-69
2023/02/10 01:05:31;;;;;;;;;;;;;;;2.12;100.00;103505.78;10462863;28;19927;-69
2023/02/10 01:10:36;;;;;;;;;;;;;;;2.24;100.00;103516.41;10463615;28;19921;-68
2023/02/10 01:15:42;;;;;;;;;;;;;;;2.20;100.00;103520.66;10458105;28;19927;-69
2023/02/10 01:20:44;;;;;;;;;;;;;;;2.18;100.00;103518.84;10420145;28;19921;-69
2023/02/10 01:25:46;;;;;;;;;;;;;;;2.04;100.00;103524.59;10426551;28;20311;-69
2023/02/10 01:30:49;;;;;;;;;;;;;;;2.09;100.00;103518.69;10462369;28;19925;-69
2023/02/10 01:35:51;;;;;;;;;;;;;;;2.26;100.00;103529.38;10436011;28;19921;-68
2023/02/10 01:40:54;;;;;;;;;;;;;;;2.03;100.00;103521.97;10420110;28;19921;-69
2023/02/10 01:45:56;;;;;;;;;;;;;;;2.32;100.00;103520.03;10444127;28;19947;-69
2023/02/10 01:51:00;;;;;;;;;;;;;;;2.20;100.00;103512.91;10462096;28;19963;-69
2023/02/10 01:56:02;;;;;;;;;;;;;;;2.24;100.00;103506.06;10426825;28;19924;-69
2023/02/10 02:01:04;;;;;;;;;;;;;;;2.13;100.00;103495.50;10442227;28;20360;-68
2023/02/10 02:06:07;;;;;;;;;;;;;;;2.11;100.00;103497.19;10449180;28;20007;-69
2023/02/10 02:11:20;;;;;;;;;;;;;;;2.18;100.00;103500.75;10419316;28;20388;-69
2023/02/10 02:16:26;;;;;;;;;;;;;;;2.20;100.00;103504.25;10418386;28;20335;-69
2023/02/10 02:21:34;;;;;;;;;;;;;;;2.16;100.00;103502.44;10417894;28;19927;-69
2023/02/10 02:26:43;;;;;;;;;;;;;;;2.29;100.00;103506.19;10435291;28;19925;-69
2023/02/10 02:31:49;;;;;;;;;;;;;;;2.18;100.00;103519.72;10458628;28;19924;-69
2023/02/10 02:36:52;;;;;;;;;;;;;;;2.14;100.00;103520.50;10441649;28;19925;-69
2023/02/10 02:42:14;;;;;;;;;;;;;;;2.22;100.00;103508.63;10441093;28;19921;-69
2023/02/10 02:47:25;;;;;;;;;;;;;;;2.30;100.00;103508.75;10441224;28;19932;-69
2023/02/10 02:52:46;;;;;;;;;;;;;;;2.26;100.00;103503.53;10458971;28;20380;-69
2023/02/10 02:58:01;;;;;;;;;;;;;;;2.12;100.00;103500.63;10457918;28;19920;-69
2023/02/10 03:03:03;;;;;;;;;;;;;;;2.09;100.00;103506.63;10425100;28;19925;-69
2023/02/10 03:08:05;;;;;;;;;;;;;;;2.17;100.00;103512.81;10455776;28;19928;-69
2023/02/10 03:13:07;;;;;;;;;;;;;;;1.95;100.00;103526.09;10443720;28;20418;-69
2023/02/10 03:18:09;;;;;;;;;;;;;;;2.11;100.00;103533.34;10443601;28;19920;-68
2023/02/10 03:23:12;;;;;;;;;;;;;;;1.93;100.00;103527.78;10455385;28;19928;-69
2023/02/10 03:28:14;;;;;;;;;;;;;;;1.80;100.00;103532.69;10416976;28;19921;-68
2023/02/10 03:33:16;;;;;;;;;;;;;;;1.91;100.00;103530.34;10416593;28;20288;-69
2023/02/10 03:38:19;;;;;;;;;;;;;;;1.89;100.00;103541.50;10447633;28;19920;-69
2023/02/10 03:43:21;;;;;;;;;;;;;;;1.83;100.00;103539.63;10456376;28;19920;-69
2023/02/10 03:48:26;;;;;;;;;;;;;;;1.78;100.00;103542.13;10455773;28;19921;-69
2023/02/10 03:53:29;;;;;;;;;;;;;;;1.75;100.00;103541.16;10457621;28;19936;-68
2023/02/10 03:58:31;;;;;;;;;;;;;;;1.71;100.00;103536.75;10456576;28;19927;-69
2023/02/10 04:03:33;;;;;;;;;;;;;;;1.72;100.00;103543.69;10446861;28;19928;-69
2023/02/10 04:08:36;;;;;;;;;;;;;;;1.73;100.00;103542.81;10423258;28;20375;-69
2023/02/10 04:13:38;;;;;;;;;;;;;;;1.81;100.00;103537.00;10431161;28;19921;-69
2023/02/10 04:18:41;;;;;;;;;;;;;;;1.76;100.00;103532.56;10430839;28;19921;-69
2023/02/10 04:23:43;;;;;;;;;;;;;;;1.70;100.00;103530.72;10445789;28;20292;-69
2023/02/10 04:28:45;;;;;;;;;;;;;;;1.70;100.00;103535.91;10450707;28;20383;-68
2023/02/10 04:33:47;;;;;;;;;;;;;;;1.77;100.00;103535.19;10506565;28;19947;-68
2023/02/10 04:38:49;;;;;;;;;;;;;;;1.71;100.00;103536.75;10505592;28;19920;-68
2023/02/10 04:43:52;;;;;;;;;;;;;;;1.65;100.00;103540.09;10503759;22;20283;-70
2023/02/10 04:48:54;;;;;;;;;;;;;;;1.67;100.00;103549.59;10442434;28;20579;-70
2023/02/10 04:53:56;;;;;;;;;;;;;;;1.38;100.00;103555.75;10422458;28;19944;-71
2023/02/10 04:58:58;;;;;;;;;;;;;;;1.41;100.00;103555.81;10416400;28;19921;-71
2023/02/10 05:04:01;;;;;;;;;;;;;;;1.45;100.00;103575.75;10422894;28;19928;-71
2023/02/10 05:09:03;;;;;;;;;;;;;;;1.59;100.00;103576.06;10422589;28;19927;-70
2023/02/10 05:14:05;;;;;;;;;;;;;;;1.53;100.00;103586.25;10422351;28;19940;-71
2023/02/10 05:19:09;;;;;;;;;;;;;;;1.39;100.00;103573.84;10422212;28;19924;-70
2023/02/10 05:24:11;;;;;;;;;;;;;;;1.41;100.00;103577.38;10422202;28;19928;-70
2023/02/10 05:29:13;;;;;;;;;;;;;;;1.45;100.00;103575.75;10420677;28;19921;-70
2023/02/10 05:34:16;;;;;;;;;;;;;;;1.32;100.00;103582.28;10444417;28;19921;-70
2023/02/10 05:39:24;;;;;;;;;;;;;;;1.29;100.00;103577.94;10462673;28;19925;-70
2023/02/10 05:44:27;;;;;;;;;;;;;;;1.41;100.00;103576.47;10438591;28;19921;-70
2023/02/10 05:49:30;;;;;;;;;;;;;;;1.24;100.00;103589.81;10419736;28;19920;-70
2023/02/10 05:54:32;;;;;;;;;;;;;;;1.46;100.00;103575.78;10444121;28;19924;-70
2023/02/10 05:59:36;;;;;;;;;;;;;;;1.49;100.00;103577.56;10460124;28;20012;-70
2023/02/10 06:04:38;;;;;;;;;;;;;;;1.53;100.00;103587.13;10428963;28;19975;-70
2023/02/10 06:09:40;;;;;;;;;;;;;;;1.31;100.00;103588.28;10420080;28;19928;-70
2023/02/10 06:14:46;;;;;;;;;;;;;;;1.18;100.00;103584.53;10428388;28;19921;-71
2023/02/10 06:19:48;;;;;;;;;;;;;;;1.28;100.00;103585.63;10419178;28;19983;-70
2023/02/10 06:24:50;;;;;;;;;;;;;;;1.12;100.00;103579.19;10419027;28;19929;-70
2023/02/10 06:29:53;;;;;;;;;;;;;;;1.17;100.00;103571.56;10418683;28;20319;-70
2023/02/10 06:34:55;;;;;;;;;;;;;;;1.14;100.00;103589.53;10418525;28;19925;-70
2023/02/10 06:39:57;;;;;;;;;;;;;;;1.04;100.00;103586.75;10418418;28;19921;-70
2023/02/10 06:45:00;;;;;;;;;;;;;;;1.08;100.00;103595.44;10417630;28;19925;-72
2023/02/10 06:50:02;;;;;;;;;;;;;;;1.06;100.00;103586.75;10417632;28;19921;-72
2023/02/10 06:55:08;;;;;;;;;;;;;;;0.86;100.00;103593.97;10417330;28;19925;-72
2023/02/10 07:00:12;;;;;;;;;;;;;;;0.75;100.00;103598.81;10417026;28;19971;-72
2023/02/10 07:05:14;;;;;;;;;;;;;;;0.79;100.00;103597.19;10416893;28;19925;-73
2023/02/10 07:10:17;;;;;;;;;;;;;;;0.64;100.00;103616.56;10417781;28;19964;-72
2023/02/10 07:15:22;;;;;;;;;;;;;;;0.58;100.00;103612.94;10417076;28;19921;-72
2023/02/10 07:20:24;;;;;;;;;;;;;;;0.40;100.00;103613.25;10416809;28;20343;-72
2023/02/10 07:25:27;;;;;;;;;;;;;;;0.53;100.00;103621.38;10417350;28;19924;-73
2023/02/10 07:30:29;;;;;;;;;;;;;;;0.58;100.00;103615.50;10416459;28;20276;-73
2023/02/10 07:35:31;;;;;;;;;;;;;;;0.73;100.00;103611.66;10416411;28;19927;-71
2023/02/10 07:40:34;;;;;;;;;;;;;;;0.63;100.00;103619.97;10416890;28;19928;-70
2023/02/10 07:45:36;;;;;;;;;;;;;;;0.99;100.00;103605.47;10415943;28;19944;-70
2023/02/10 07:50:38;;;;;;;;;;;;;;;0.88;100.00;103611.22;10416494;28;19972;-70
2023/02/10 07:55:40;;;;;;;;;;;;;;;1.29;100.00;103615.75;10416438;28;19935;-70
2023/02/10 08:00:43;;;;;;;;;;;;;;;1.46;100.00;103611.94;10398947;28;19971;-70
2023/02/10 08:05:47;;;;;;;;;;;;;;;1.51;100.00;103619.78;10415573;28;20343;-70
2023/02/10 08:10:50;;;;;;;;;;;;;;;1.46;100.00;103634.28;10416001;28;19921;-70
2023/02/10 08:15:52;;;;;;;;;;;;;;;1.53;100.00;103641.38;10414878;28;19996;-68
2023/02/10 08:20:58;;;;;;;;;;;;;;;1.37;100.00;103647.81;10415961;28;19925;-70
2023/02/10 08:26:04;;;;;;;;;;;;;;;1.35;100.00;103658.97;10415166;28;19921;-70
2023/02/10 08:31:07;;;;;;;;;;;;;;;1.54;100.00;103668.91;10414539;28;19921;-70
2023/02/10 08:36:10;;;;;;;;;;;;;;;1.49;100.00;103676.53;10415002;28;19921;-70
2023/02/10 08:41:12;;;;;;;;;;;;;;;1.65;100.00;103682.13;10415598;28;19921;-70
2023/02/10 08:46:15;;;;;;;;;;;;;;;1.84;100.00;103660.22;10413539;28;19924;-70
2023/02/10 08:51:17;;;;;;;;;;;;;;;1.81;100.00;103644.63;10414104;28;19921;-70
2023/02/10 08:56:19;;;;;;;;;;;;;;;2.21;100.00;103641.28;10415286;28;19921;-70
2023/02/10 09:01:23;;;;;;;;;;;;;;;2.10;100.00;103652.22;10415352;28;19921;-69
2023/02/10 09:06:28;;;;;;;;;;;;;;;2.58;100.00;103642.13;10415107;28;19921;-70
2023/02/10 09:11:30;;;;;;;;;;;;;;;2.48;100.00;103645.34;10419230;28;20334;-71
2023/02/10 09:16:33;;;;;;;;;;;;;;;2.62;100.00;103639.59;10420594;28;19925;-70
2023/02/10 09:21:35;;;;;;;;;;;;;;;2.66;100.00;103631.94;10420363;28;20383;-70
2023/02/10 09:26:48;;;;;;;;;;;;;;;3.27;100.00;103641.75;10420967;28;19921;-71
2023/02/10 09:31:50;;;;;;;;;;;;;;;3.44;100.00;103645.53;10421076;28;19921;-71
2023/02/10 09:36:57;;;;;;;;;;;;;;;3.62;100.00;103647.56;10420951;28;19927;-71
2023/02/10 09:42:05;;;;;;;;;;;;;;;4.73;100.00;103648.38;10421364;28;19921;-72
2023/02/10 09:47:29;;;;;;;;;;;;;;;4.26;100.00;103639.94;10420453;28;19921;-71
2023/02/10 09:52:34;;;;;;;;;;;;;;;4.81;100.00;103634.63;10419642;28;19971;-71
2023/02/10 09:57:44;;;;;;;;;;;;;;;4.56;100.00;103641.25;10420161;28;19921;-71
2023/02/10 10:02:50;;;;;;;;;;;;;;;5.21;100.00;103639.41;10419432;28;19983;-72
2023/02/10 10:07:53;;;;;;;;;;;;;;;6.40;100.00;103632.59;10402204;28;20376;-73
2023/02/10 10:12:55;;;;;;;;;;;;;;;7.81;100.00;103640.75;10419466;28;19944;-73
2023/02/10 10:18:30;;;;;;;;;;;;;;;6.05;96.66;103638.44;10419385;28;19925;-72
2023/02/10 10:23:44;;;;;;;;;;;;;;;7.91;94.83;103640.78;10375121;28;20276;-73
2023/02/10 10:28:57;;;;;;;;;;;;;;;7.89;90.36;103635.56;10418995;28;20261;-74
2023/02/10 10:34:08;;;;;;;;;;;;;;;8.37;85.92;103623.31;10418203;28;19928;-74
2023/02/10 10:39:23;;;;;;;;;;;;;;;10.93;81.45;103625.63;10418535;28;19928;-75
2023/02/10 10:44:25;;;;;;;;;;;;;;;8.13;79.96;103633.78;10418581;28;19925;-75
2023/02/10 10:49:27;;;;;;;;;;;;;;;10.91;82.91;103624.75;10417820;28;19971;-75
2023/02/10 10:54:30;;;;;;;;;;;;;;;12.39;73.62;103615.31;10417812;28;20293;-75
2023/02/10 10:59:40;;;;;;;;;;;;;;;11.66;74.19;103605.22;10417188;28;19979;-76
2023/02/10 11:04:45;;;;;;;;;;;;;;;10.55;68.52;103608.63;10417171;28;19971;-76
2023/02/10 11:09:58;;;;;;;;;;;;;;;12.01;74.46;103606.38;10417329;28;19925;-77
2023/02/10 11:15:01;;;;;;;;;;;;;;;12.45;67.31;103595.91;10417126;28;20287;-78
2023/02/10 11:20:23;;;;;;;;;;;;;;;13.91;65.89;103595.09;10415897;28;19943;-77
2023/02/10 11:25:35;;;;;;;;;;;;;;;14.94;62.41;103595.69;10416563;28;19924;-78
2023/02/10 11:30:38;;;;;;;;;;;;;;;15.90;63.28;103585.47;10417167;28;20356;-79
2023/02/10 11:35:46;;;;;;;;;;;;;;;16.62;58.21;103581.91;10415624;28;19927;-79
2023/02/10 11:40:53;;;;;;;;;;;;;;;14.09;58.71;103571.81;10415140;28;20253;-79
2023/02/10 11:45:59;;;;;;;;;;;;;;;15.16;56.70;103562.44;10415988;28;20272;-79
2023/02/10 11:51:04;;;;;;;;;;;;;;;16.46;55.80;103553.44;10416543;28;19921;-80
2023/02/10 11:56:18;;;;;;;;;;;;;;;15.63;56.61;103561.72;10416474;28;20012;-79
2023/02/10 12:01:24;;;;;;;;;;;;;;;15.20;57.24;103560.56;10414510;28;20265;-79
2023/02/10 12:06:36;;;;;;;;;;;;;;;13.54;58.38;103551.31;10416166;28;19924;-80
2023/02/10 12:11:39;;;;;;;;;;;;;;;14.63;56.78;103538.63;10416031;28;19925;-79
2023/02/10 12:17:03;;;;;;;;;;;;;;;14.51;56.30;103537.19;10414957;28;19968;-79
2023/02/10 12:22:17;;;;;;;;;;;;;;;12.26;58.24;103535.00;10414317;28;20316;-78
2023/02/10 12:27:39;;;;;;;;;;;;;;;12.12;62.78;103545.81;10415810;28;19968;-78
2023/02/10 12:32:50;;;;;;;;;;;;;;;12.07;63.14;103540.63;10415695;28;19925;-77
2023/02/10 12:38:06;;;;;;;;;;;;;;;12.05;58.67;103525.78;10415047;28;19920;-77
2023/02/10 12:43:15;;;;;;;;;;;;;;;13.98;52.41;103529.09;10414778;28;19967;-78
2023/02/10 12:48:36;;;;;;;;;;;;;;;12.78;55.01;103538.25;10422295;28;19948;-77
2023/02/10 12:53:40;;;;;;;;;;;;;;;10.91;58.76;103525.13;10421412;28;20384;-76
2023/02/10 12:58:43;;;;;;;;;;;;;;;11.13;57.88;103509.97;10421297;28;19944;-76
2023/02/10 13:03:46;;;;;;;;;;;;;;;10.92;62.54;103500.66;10422863;28;19921;-75
2023/02/10 13:08:49;;;;;;;;;;;;;;;11.06;59.46;103498.72;10422602;28;19921;-75
2023/02/10 13:13:53;;;;;;;;;;;;;;;13.07;54.01;103484.09;10421247;28;19921;-75
2023/02/10 13:18:58;;;;;;;;;;;;;;;12.25;59.46;103471.09;10422288;28;19921;-75
2023/02/10 13:24:00;;;;;;;;;;;;;;;12.80;53.79;103475.97;10422120;28;19921;-75
2023/02/10 13:29:17;;;;;;;;;;;;;;;11.89;54.99;103488.47;10421292;28;20323;-75
2023/02/10 13:34:21;;;;;;;;;;;;;;;17.25;45.76;103477.03;10419916;28;19928;-76
2023/02/10 13:39:25;;;;;;;;;;;;;;;19.75;39.61;103472.97;10420671;28;19921;-76
2023/02/10 13:44:31;;;;;;;;;;;;;;;13.61;50.24;103490.63;10419383;28;19927;-75
2023/02/10 13:49:33;;;;;;;;;;;;;;;13.96;49.15;103478.22;10419419;28;19980;-76
2023/02/10 13:54:35;;;;;;;;;;;;;;;11.38;58.02;103462.31;10418981;28;19924;-75
2023/02/10 13:59:39;;;;;;;;;;;;;;;9.91;60.09;103454.00;10419016;28;19921;-75
2023/02/10 14:04:43;;;;;;;;;;;;;;;10.84;60.86;103431.78;10418841;28;20000;-74
2023/02/10 14:09:46;;;;;;;;;;;;;;;9.49;63.76;103430.06;10419731;28;20334;-74
2023/02/10 14:14:49;;;;;;;;;;;;;;;10.16;64.87;103420.53;10418239;28;20295;-74
2023/02/10 14:19:51;;;;;;;;;;;;;;;10.20;65.50;103437.94;10418837;28;19921;-74
2023/02/10 14:24:54;;;;;;;;;;;;;;;8.93;70.05;103434.97;10419832;28;19921;-73
2023/02/10 14:30:05;;;;;;;;;;;;;;;9.19;71.48;103432.09;10419630;28;20012;-73
2023/02/10 14:35:14;;;;;;;;;;;;;;;8.71;73.00;103440.34;10418203;28;19921;-73
2023/02/10 14:40:29;;;;;;;;;;;;;;;9.41;72.29;103429.28;10417671;28;20372;-73
2023/02/10 14:45:35;;;;;;;;;;;;;;;8.76;73.58;103434.22;10417061;28;19928;-73
2023/02/10 14:50:38;;;;;;;;;;;;;;;8.66;74.21;103441.28;10418202;28;20037;-73
2023/02/10 14:55:43;;;;;;;;;;;;;;;9.52;73.23;103437.91;10418570;28;19928;-73
2023/02/10 15:00:57;;;;;;;;;;;;;;;8.93;75.15;103438.44;10417764;28;20336;-73
2023/02/10 15:06:02;;;;;;;;;;;;;;;8.92;74.39;103441.06;10416775;28;19972;-73
2023/02/10 15:11:05;;;;;;;;;;;;;;;9.27;73.68;103422.44;10416580;28;19921;-73
2023/02/10 15:16:07;;;;;;;;;;;;;;;8.97;74.05;103405.31;10417235;28;19921;-73
2023/02/10 15:21:27;;;;;;;;;;;;;;;8.42;76.15;103397.88;10416995;28;20298;-72
2023/02/10 15:26:29;;;;;;;;;;;;;;;8.30;76.67;103397.06;10416303;28;19925;-72
2023/02/10 15:31:31;;;;;;;;;;;;;;;8.08;77.92;103398.94;10415374;28;19928;-72
2023/02/10 15:36:34;;;;;;;;;;;;;;;8.26;75.04;103390.16;10416444;28;20367;-73
2023/02/10 15:41:37;;;;;;;;;;;;;;;8.02;77.29;103408.53;10399369;28;19925;-72
2023/02/10 15:46:39;;;;;;;;;;;;;;;7.60;76.64;103424.38;10416112;28;19925;-72
2023/02/10 15:51:44;;;;;;;;;;;;;;;7.42;77.71;103420.91;10416544;28;19921;-72
2023/02/10 15:56:55;;;;;;;;;;;;;;;7.11;77.89;103414.91;10414731;28;20273;-72
2023/02/10 16:01:59;;;;;;;;;;;;;;;7.01;77.53;103418.38;10416614;28;19928;-72
2023/02/10 16:07:02;;;;;;;;;;;;;;;7.21;77.47;103431.38;10416283;28;19921;-73
2023/02/10 16:12:04;;;;;;;;;;;;;;;7.05;79.59;103423.59;10415444;28;19929;-72
2023/02/10 16:17:06;;;;;;;;;;;;;;;6.93;80.41;103422.75;10415440;28;19925;-72
2023/02/10 16:22:09;;;;;;;;;;;;;;;6.66;83.10;103419.25;10421362;28;19921;-71
2023/02/10 16:27:12;;;;;;;;;;;;;;;6.59;85.67;103430.50;10424466;28;19928;-71
2023/02/10 16:32:14;;;;;;;;;;;;;;;6.64;86.04;103418.34;10422988;28;19924;-72
2023/02/10 16:37:20;;;;;;;;;;;;;;;6.62;87.51;103428.78;10422832;28;19927;-72
2023/02/10 16:42:22;;;;;;;;;;;;;;;6.61;87.96;103428.78;10423342;28;19921;-71
2023/02/10 16:47:24;;;;;;;;;;;;;;;6.51;88.31;103407.06;10422840;28;19983;-71
2023/02/10 16:52:27;;;;;;;;;;;;;;;6.25;90.09;103410.47;10421501;28;20277;-71
2023/02/10 16:57:29;;;;;;;;;;;;;;;6.51;89.82;103415.75;10441011;22;19971;-69
2023/02/10 17:02:31;;;;;;;;;;;;;;;6.62;90.22;103425.31;10446033;28;19921;-69
2023/02/10 17:07:34;;;;;;;;;;;;;;;6.32;91.66;103432.19;10464272;28;20283;-69
2023/02/10 17:12:36;;;;;;;;;;;;;;;6.36;92.85;103435.69;10463821;28;19924;-70
2023/02/10 17:17:39;;;;;;;;;;;;;;;6.55;92.94;103426.16;10463757;28;19939;-69
2023/02/10 17:22:42;;;;;;;;;;;;;;;6.25;94.09;103428.69;10462831;28;20330;-70
2023/02/10 17:27:45;;;;;;;;;;;;;;;6.13;95.57;103413.91;10462188;28;19921;-69
2023/02/10 17:32:47;;;;;;;;;;;;;;;6.31;95.55;103409.63;10462500;28;19920;-69
2023/02/10 17:38:43;;;;;;;;;;;;;;;6.30;97.43;103400.97;10462270;28;19920;-69
2023/02/10 17:43:11;;;;;;;;;;;;;;;6.22;96.78;103394.00;10462014;28;19921;-69
2023/02/10 17:48:13;;;;;;;;;;;;;;;6.05;99.67;103378.34;10462512;28;19921;-69
2023/02/10 17:53:17;;;;;;;;;;;;;;;6.01;100.00;103377.47;10459561;28;20334;-69
2023/02/10 17:58:19;;;;;;;;;;;;;;;6.07;100.00;103389.59;10461135;28;20490;-69
2023/02/10 18:03:21;;;;;;;;;;;;;;;5.99;100.00;103375.75;10461913;28;19998;-69
2023/02/10 18:08:23;;;;;;;;;;;;;;;6.06;100.00;103367.94;10461190;28;19925;-69
2023/02/10 18:13:26;;;;;;;;;;;;;;;6.01;100.00;103350.59;10460834;28;20531;-69
2023/02/10 18:18:28;;;;;;;;;;;;;;;6.00;100.00;103330.66;10460715;28;20329;-69
2023/02/10 18:23:30;;;;;;;;;;;;;;;5.91;100.00;103332.31;10461152;28;19947;-68
2023/02/10 18:28:32;;;;;;;;;;;;;;;5.98;100.00;103346.25;10460288;28;20338;-69
2023/02/10 18:33:35;;;;;;;;;;;;;;;6.06;100.00;103354.94;10460587;28;19925;-69
2023/02/10 18:38:37;;;;;;;;;;;;;;;5.89;100.00;103359.22;10460062;28;20249;-69
2023/02/10 18:43:40;;;;;;;;;;;;;;;5.84;100.00;103369.59;10458192;28;19928;-69
2023/02/10 18:48:42;;;;;;;;;;;;;;;5.93;100.00;103351.44;10459368;28;20268;-68
2023/02/10 18:53:45;;;;;;;;;;;;;;;5.88;100.00;103341.84;10441628;28;19925;-69
2023/02/10 18:58:47;;;;;;;;;;;;;;;5.82;100.00;103342.72;10458916;28;19920;-69
2023/02/10 19:03:49;;;;;;;;;;;;;;;5.98;100.00;103340.19;10453091;28;19967;-68
2023/02/10 19:08:52;;;;;;;;;;;;;;;5.84;100.00;103337.53;10458658;28;20322;-68
2023/02/10 19:13:54;;;;;;;;;;;;;;;5.99;100.00;103342.78;10458504;28;19947;-69
2023/02/10 19:18:58;;;;;;;;;;;;;;;5.94;100.00;103350.53;10441704;28;19925;-68
2023/02/10 19:24:00;;;;;;;;;;;;;;;6.11;100.00;103365.38;10455999;28;19921;-69
2023/02/10 19:29:03;;;;;;;;;;;;;;;6.18;100.00;103390.53;10457221;28;19944;-68
2023/02/10 19:34:07;;;;;;;;;;;;;;;6.04;100.00;103380.09;10457035;28;20311;-68
2023/02/10 19:39:14;;;;;;;;;;;;;;;6.11;100.00;103386.16;10455153;28;20019;-69
2023/02/10 19:44:17;;;;;;;;;;;;;;;5.98;100.00;103380.06;10457553;28;20399;-67
2023/02/10 19:49:19;;;;;;;;;;;;;;;5.86;100.00;103383.44;10457151;28;19967;-68
2023/02/10 19:54:22;;;;;;;;;;;;;;;5.94;100.00;103396.50;10456006;28;19991;-68
2023/02/10 19:59:24;;;;;;;;;;;;;;;6.12;100.00;103375.78;10456427;28;19928;-68
2023/02/10 20:04:26;;;;;;;;;;;;;;;6.03;100.00;103370.53;10454752;28;19925;-69
2023/02/10 20:09:30;;;;;;;;;;;;;;;5.98;100.00;103368.78;10448660;28;19986;-68
2023/02/10 20:14:33;;;;;;;;;;;;;;;6.06;100.00;103361.88;10439944;28;19920;-68
2023/02/10 20:19:35;;;;;;;;;;;;;;;6.09;100.00;103356.69;10454739;28;19943;-68
2023/02/10 20:24:37;;;;;;;;;;;;;;;6.00;100.00;103369.66;10455452;28;20253;-68
2023/02/10 20:29:40;;;;;;;;;;;;;;;6.02;100.00;103357.53;10456200;28;19967;-68
2023/02/10 20:34:42;;;;;;;;;;;;;;;6.01;100.00;103364.47;10456934;28;19920;-68
2023/02/10 20:39:44;;;;;;;;;;;;;;;6.09;100.00;103365.34;10455372;28;20356;-68
2023/02/10 20:44:46;;;;;;;;;;;;;;;6.04;100.00;103371.44;10456921;28;19924;-68
2023/02/10 20:49:49;;;;;;;;;;;;;;;6.13;100.00;103353.22;10456770;28;19921;-68
2023/02/10 20:54:51;;;;;;;;;;;;;;;6.04;100.00;103328.06;10454911;28;19921;-68
2023/02/10 20:59:53;;;;;;;;;;;;;;;5.92;100.00;103318.47;10455686;28;20306;-67
2023/02/10 21:04:55;;;;;;;;;;;;;;;6.03;100.00;103313.31;10456703;28;20330;-68
2023/02/10 21:09:57;;;;;;;;;;;;;;;6.12;100.00;103326.34;10462742;28;20385;-69
2023/02/10 21:15:00;;;;;;;;;;;;;;;6.30;100.00;103335.03;10461541;28;19982;-69
2023/02/10 21:20:02;;;;;;;;;;;;;;;6.19;100.00;103348.03;10462998;28;20326;-69
2023/02/10 21:25:06;;;;;;;;;;;;;;;6.21;100.00;103363.66;10462035;28;19928;-69
2023/02/10 21:30:09;;;;;;;;;;;;;;;6.29;100.00;103369.75;10462286;28;19947;-69
2023/02/10 21:35:12;;;;;;;;;;;;;;;6.34;100.00;103378.44;10461965;28;19921;-69
2023/02/10 21:40:14;;;;;;;;;;;;;;;6.28;100.00;103381.88;10461148;28;19920;-69
2023/02/10 21:45:17;;;;;;;;;;;;;;;6.25;100.00;103376.66;10461877;28;19925;-69
2023/02/10 21:50:19;;;;;;;;;;;;;;;6.17;100.00;103373.19;10461456;28;19921;-69
2023/02/10 21:55:21;;;;;;;;;;;;;;;6.13;100.00;103371.44;10461601;28;19921;-69
2023/02/10 22:00:24;;;;;;;;;;;;;;;6.11;100.00;103361.03;10461471;28;19920;-69
2023/02/10 22:05:26;;;;;;;;;;;;;;;6.00;100.00;103356.66;10460674;28;19920;-69
2023/02/10 22:10:28;;;;;;;;;;;;;;;6.08;100.00;103367.94;10461699;28;19920;-69
2023/02/10 22:15:30;;;;;;;;;;;;;;;6.01;100.00;103372.28;10460741;28;19920;-69
2023/02/10 22:20:33;;;;;;;;;;;;;;;6.06;100.00;103374.88;10458843;28;19944;-69
2023/02/10 22:25:35;;;;;;;;;;;;;;;5.99;100.00;103365.34;10460320;28;19920;-69
2023/02/10 22:30:37;;;;;;;;;;;;;;;6.10;100.00;103369.72;10460263;28;19920;-69
2023/02/10 22:35:40;;;;;;;;;;;;;;;6.07;100.00;103376.59;10460750;28;20447;-69
2023/02/10 22:40:42;;;;;;;;;;;;;;;6.28;100.00;103384.47;10460595;28;19966;-69
2023/02/10 22:45:48;;;;;;;;;;;;;;;6.22;100.00;103387.06;10458959;28;19920;-69
2023/02/10 22:50:51;;;;;;;;;;;;;;;6.09;100.00;103395.72;10459549;28;20018;-69
2023/02/10 22:55:53;;;;;;;;;;;;;;;6.27;100.00;103387.06;10459294;28;20224;-69
2023/02/10 23:00:55;;;;;;;;;;;;;;;6.39;100.00;103384.50;10458335;28;19927;-69
2023/02/10 23:05:57;;;;;;;;;;;;;;;6.23;100.00;103380.13;10459692;28;19967;-69
2023/02/10 23:11:00;;;;;;;;;;;;;;;6.22;100.00;103371.47;10459363;28;19924;-69
2023/02/10 23:16:02;;;;;;;;;;;;;;;6.16;100.00;103361.03;10457181;28;19970;-69
2023/02/10 23:21:12;;;;;;;;;;;;;;;6.14;100.00;103348.03;10458988;28;19927;-67
2023/02/10 23:26:14;;;;;;;;;;;;;;;6.11;100.00;103327.22;10457068;28;19921;-69
2023/02/10 23:31:17;;;;;;;;;;;;;;;6.17;100.00;103328.97;10456844;28;19928;-68
2023/02/10 23:36:19;;;;;;;;;;;;;;;6.13;100.00;103340.22;10456551;28;19925;-70
2023/02/10 23:41:22;;;;;;;;;;;;;;;6.16;100.00;103318.56;10457611;28;19947;-69
2023/02/10 23:46:24;;;;;;;;;;;;;;;6.31;100.00;103309.03;10458049;28;19924;-69
2023/02/10 23:51:27;;;;;;;;;;;;;;;6.08;100.00;103319.38;10457882;28;19931;-69
2023/02/10 23:56:29;;;;;;;;;;;;;;;6.10;100.00;103322.88;10457221;28;19928;-69
